Eagle, Colorado
Current Conditions -  °F | °C
As of 4:50 PM on Tuesday 25 Nov 2014 (Local Time) from KEGE Reporting Station
Rain Showers Rain Showers  
Wind Chill: 18°   Ceiling: 6000
Heat Index: 30°   Visibility: 10mi
Dew Point: 19°   Wind: 17mph
Humidity: 64%   Direction: 230°SW
Pressure: 30.26"   Gusts: NA
Location:  39.66°N, 106.83°W
Report Text: KEGE 252350Z 23015KT 10SM VCSH OVC060 M01/M07 A3026
Loading
Personal Weather Stations






























Interactive Weather Map New forecast layout! Learn more

10-Day Weather Forecast

Advertisements
Track Severe Weather on mobile